Terminal Aerodrome Forecast
Issued by NWS Oklahoma City, OK

Home | Current Version | Previous Version | Text Only | Print | Product List | Glossary On
Versions: 1 2 3 4 5 6 7 8 9 10 11 12 13 14 15 16 17 18 19 20 21 22 23 24 25 26 27
000
FTUS44 KOUN 011300 AAB
TAFOUN
TAF AMD
KOUN 011300Z 0113/0212 03003KT 3SM BR SCT003
      TEMPO 0113/0114 5SM BR
     FM011500 09007KT P6SM SCT015
     FM011800 10006KT P6SM BKN050
     FM012100 13004KT P6SM BKN250=

USA.gov is the U.S. government's official web portal to all federal, state and local government web resources and services.